createdAt,value
2023-01-22T00:01:02.781Z,0.47
2023-01-22T00:03:34.643Z,0.68
2023-01-22T00:06:06.196Z,0.87
2023-01-22T00:08:38.074Z,1.10
2023-01-22T00:11:09.594Z,1.10
2023-01-22T00:13:41.667Z,0.47
2023-01-22T00:16:13.509Z,0.70
2023-01-22T00:18:45.454Z,0.93
2023-01-22T00:21:17.092Z,0.50
2023-01-22T00:23:48.957Z,0.38
2023-01-22T00:26:21.004Z,0.67
2023-01-22T00:28:52.574Z,1.27
2023-01-22T00:31:24.253Z,0.90
2023-01-22T00:33:56.159Z,0.55
2023-01-22T00:36:27.758Z,1.00
2023-01-22T00:38:59.613Z,0.63
2023-01-22T00:41:31.222Z,0.57
2023-01-22T00:44:03.042Z,0.70
2023-01-22T00:46:34.577Z,0.40
2023-01-22T00:49:06.435Z,0.63
2023-01-22T00:51:39.486Z,0.50
2023-01-22T00:54:11.388Z,0.75
2023-01-22T00:56:42.907Z,1.00
2023-01-22T00:59:14.449Z,0.50
2023-01-22T01:01:45.998Z,0.63
2023-01-22T01:04:17.870Z,0.63
2023-01-22T01:06:49.389Z,0.77
2023-01-22T01:09:20.978Z,0.82
2023-01-22T01:11:52.522Z,1.17
2023-01-22T01:14:24.364Z,1.25
2023-01-22T01:16:58.366Z,0.90
2023-01-22T01:19:30.680Z,0.55
2023-01-22T01:22:02.222Z,0.80
2023-01-22T01:24:34.082Z,0.80
2023-01-22T01:27:05.594Z,0.87
2023-01-22T01:29:37.441Z,0.80
2023-01-22T01:32:08.955Z,1.00
2023-01-22T01:34:40.895Z,0.65
2023-01-22T01:37:12.436Z,0.65
2023-01-22T01:39:44.268Z,0.52
2023-01-22T01:42:15.806Z,0.77
2023-01-22T01:44:47.321Z,0.85
2023-01-22T01:47:18.853Z,0.93
2023-01-22T01:49:50.673Z,0.50
2023-01-22T01:52:22.190Z,0.83
2023-01-22T01:54:54.011Z,1.17
2023-01-22T01:57:25.525Z,0.50
2023-01-22T01:59:57.574Z,0.73
2023-01-22T02:02:29.083Z,0.60
2023-01-22T02:05:00.858Z,0.75
2023-01-22T02:07:32.363Z,0.83
2023-01-22T02:10:06.603Z,0.75
2023-01-22T02:12:38.131Z,1.08
2023-01-22T02:15:09.979Z,0.70
2023-01-22T02:17:41.541Z,0.73
2023-01-22T02:20:13.517Z,0.65
2023-01-22T02:22:45.069Z,1.17
2023-01-22T02:25:16.648Z,0.57
2023-01-22T02:27:48.228Z,0.70
2023-01-22T02:30:20.193Z,0.88
2023-01-22T02:32:51.927Z,0.40
2023-01-22T02:35:23.769Z,0.65
2023-01-22T02:37:55.295Z,0.87
2023-01-22T02:40:27.152Z,0.70
2023-01-22T02:42:58.681Z,0.40
2023-01-22T02:45:30.735Z,1.25
2023-01-22T02:48:02.271Z,0.85
2023-01-22T02:50:34.060Z,0.93
2023-01-22T02:53:05.579Z,0.83
2023-01-22T02:55:37.702Z,0.40
2023-01-22T02:58:09.198Z,0.85
2023-01-22T03:00:41.099Z,0.82
2023-01-22T03:03:15.309Z,0.60
2023-01-22T03:05:46.833Z,0.38
2023-01-22T03:08:18.411Z,1.13
2023-01-22T03:10:50.239Z,0.68
2023-01-22T03:13:40.239Z,1.03
2023-01-22T03:16:30.803Z,0.50
2023-01-22T03:19:21.475Z,0.63
2023-01-22T03:21:53.020Z,0.50
2023-01-22T03:24:24.881Z,0.70
2023-01-22T03:26:56.392Z,0.30
2023-01-22T03:29:28.174Z,0.93
2023-01-22T03:31:59.707Z,0.47
2023-01-22T03:34:31.680Z,0.63
2023-01-22T03:37:03.170Z,0.50
2023-01-22T03:39:35.175Z,0.60
2023-01-22T03:42:06.699Z,0.70
2023-01-22T03:44:38.585Z,0.63
2023-01-22T03:47:10.136Z,0.73
2023-01-22T03:49:41.998Z,0.90
2023-01-22T03:52:13.484Z,0.77
2023-01-22T03:54:45.444Z,1.10
2023-01-22T03:57:16.968Z,1.17
2023-01-22T03:59:48.842Z,0.63
2023-01-22T04:02:20.424Z,0.57
2023-01-22T04:04:52.297Z,1.02
2023-01-22T04:07:23.846Z,0.40
2023-01-22T04:09:55.651Z,0.50
2023-01-22T04:12:27.163Z,0.93
2023-01-22T04:14:58.917Z,0.90
2023-01-22T04:17:30.430Z,0.55
2023-01-22T04:20:02.352Z,0.77
2023-01-22T04:22:33.931Z,0.40
2023-01-22T04:25:05.944Z,0.65
2023-01-22T04:27:37.886Z,0.50
2023-01-22T04:30:09.749Z,0.40
2023-01-22T04:32:41.434Z,0.60
2023-01-22T04:35:12.959Z,1.08
2023-01-22T04:37:44.746Z,0.90
2023-01-22T04:40:16.584Z,0.40
2023-01-22T04:42:48.539Z,1.10
2023-01-22T04:45:20.077Z,0.80
2023-01-22T04:47:51.924Z,0.30
2023-01-22T04:50:23.495Z,0.50
2023-01-22T04:52:55.377Z,0.82
2023-01-22T04:55:26.923Z,0.80
2023-01-22T04:57:58.836Z,0.93
2023-01-22T05:00:30.395Z,1.10
2023-01-22T05:03:02.347Z,0.90
2023-01-22T05:05:33.888Z,0.68
2023-01-22T05:08:05.825Z,0.75
2023-01-22T05:10:37.373Z,1.08
2023-01-22T05:13:09.164Z,1.13
2023-01-22T05:15:40.714Z,0.87
2023-01-22T05:18:12.624Z,1.13
2023-01-22T05:20:44.159Z,0.87
2023-01-22T05:23:16.045Z,0.70
2023-01-22T05:25:47.529Z,1.07
2023-01-22T05:28:19.428Z,1.08
2023-01-22T05:30:51.042Z,1.00
2023-01-22T05:33:22.607Z,1.02
2023-01-22T05:35:54.123Z,0.80
2023-01-22T05:38:26.080Z,1.10
2023-01-22T05:40:57.581Z,1.08
2023-01-22T05:43:29.457Z,0.57
2023-01-22T05:46:01.099Z,1.10
2023-01-22T05:48:33.054Z,0.80
2023-01-22T05:51:04.788Z,1.00
2023-01-22T05:53:36.796Z,0.90
2023-01-22T05:56:08.364Z,0.70
2023-01-22T05:58:40.253Z,1.27
2023-01-22T06:01:11.760Z,0.77
2023-01-22T06:03:44.129Z,0.98
2023-01-22T06:06:15.691Z,0.63
2023-01-22T06:08:47.913Z,0.57
2023-01-22T06:11:19.850Z,0.73
2023-01-22T06:13:51.379Z,1.13
2023-01-22T06:16:25.083Z,0.90
2023-01-22T06:18:56.605Z,0.85
2023-01-22T06:21:28.476Z,0.93
2023-01-22T06:24:00.022Z,0.93
2023-01-22T06:26:31.900Z,1.10
2023-01-22T06:29:03.475Z,0.53
2023-01-22T06:31:35.407Z,0.70
2023-01-22T06:34:07.015Z,0.50
2023-01-22T06:36:38.887Z,1.35
2023-01-22T06:39:10.412Z,0.90
2023-01-22T06:41:42.230Z,0.70
2023-01-22T06:44:13.754Z,1.10
2023-01-22T06:46:46.041Z,1.27
2023-01-22T06:49:17.664Z,1.00
2023-01-22T06:51:49.544Z,1.20
2023-01-22T06:54:21.096Z,1.17
2023-01-22T06:56:52.923Z,0.70
2023-01-22T06:59:24.936Z,1.53
2023-01-22T07:01:56.920Z,0.90
2023-01-22T07:04:28.549Z,1.02
2023-01-22T07:07:00.401Z,1.25
2023-01-22T07:09:31.918Z,1.00
2023-01-22T07:12:03.816Z,0.70
2023-01-22T07:14:37.475Z,0.67
2023-01-22T07:17:09.685Z,1.10
2023-01-22T07:19:41.278Z,0.80
2023-01-22T07:22:13.168Z,1.02
2023-01-22T07:24:44.678Z,0.53
2023-01-22T07:27:16.593Z,1.23
2023-01-22T07:29:50.029Z,1.47
2023-01-22T07:32:22.143Z,1.00
2023-01-22T07:34:53.667Z,1.38
2023-01-22T07:37:25.460Z,1.60
2023-01-22T07:39:56.978Z,0.43
2023-01-22T07:42:28.816Z,1.10
2023-01-22T07:45:00.366Z,1.43
2023-01-22T07:47:32.422Z,1.25
2023-01-22T07:50:03.923Z,1.40
2023-01-22T07:52:35.876Z,0.70
2023-01-22T07:55:07.388Z,1.05
2023-01-22T07:57:39.279Z,1.52
2023-01-22T08:00:10.960Z,1.57
2023-01-22T08:02:42.879Z,1.10
2023-01-22T08:05:14.441Z,1.17
2023-01-22T08:07:46.395Z,0.90
2023-01-22T08:10:18.173Z,1.42
2023-01-22T08:12:50.121Z,1.43
2023-01-22T08:15:21.650Z,1.20
2023-01-22T08:17:53.758Z,1.33
2023-01-22T08:20:25.318Z,1.65
2023-01-22T08:22:57.485Z,1.05
2023-01-22T08:25:29.020Z,1.33
2023-01-22T08:28:00.633Z,1.00
2023-01-22T08:30:32.412Z,1.45
2023-01-22T08:33:04.848Z,1.30
2023-01-22T08:35:36.363Z,1.33
2023-01-22T08:38:08.396Z,1.48
2023-01-22T08:40:39.936Z,1.02
2023-01-22T08:43:11.841Z,1.27
2023-01-22T08:45:43.427Z,1.33
2023-01-22T08:48:15.430Z,1.13
2023-01-22T08:50:47.082Z,1.08
2023-01-22T08:53:19.018Z,2.00
2023-01-22T08:55:50.538Z,1.50
2023-01-22T08:58:22.581Z,1.23
2023-01-22T09:00:54.851Z,1.70
2023-01-22T09:03:26.742Z,1.38
2023-01-22T09:05:58.776Z,1.07
2023-01-22T09:08:30.729Z,1.15
2023-01-22T09:11:02.267Z,0.82
2023-01-22T09:13:34.209Z,1.23
2023-01-22T09:16:06.084Z,0.82
2023-01-22T09:18:38.037Z,1.47
2023-01-22T09:21:09.676Z,1.60
2023-01-22T09:23:41.556Z,1.92
2023-01-22T09:26:13.066Z,1.27
2023-01-22T09:28:45.044Z,1.70
2023-01-22T09:31:17.276Z,1.70
2023-01-22T09:33:49.293Z,2.30
2023-01-22T09:36:20.818Z,1.75
2023-01-22T09:38:52.744Z,1.52
2023-01-22T09:41:24.322Z,1.23
2023-01-22T09:43:56.224Z,1.83
2023-01-22T09:46:27.865Z,1.67
2023-01-22T09:48:59.739Z,2.20
2023-01-22T09:51:31.284Z,1.83
2023-01-22T09:54:03.206Z,1.90
2023-01-22T09:56:35.134Z,2.03
2023-01-22T09:59:06.689Z,1.27
2023-01-22T10:01:38.219Z,1.88
2023-01-22T10:04:11.670Z,1.73
2023-01-22T10:06:43.489Z,1.42
2023-01-22T10:09:16.016Z,2.53
2023-01-22T10:11:47.565Z,1.20
2023-01-22T10:14:19.304Z,1.27
2023-01-22T10:16:50.960Z,2.15
2023-01-22T10:19:22.513Z,1.52
2023-01-22T10:21:54.067Z,1.80
2023-01-22T10:24:26.005Z,1.52
2023-01-22T10:26:58.959Z,1.23
2023-01-22T10:29:30.858Z,2.00
2023-01-22T10:32:02.474Z,1.93
2023-01-22T10:34:35.948Z,2.15
2023-01-22T10:37:07.498Z,1.52
2023-01-22T10:39:39.050Z,1.77
2023-01-22T10:42:10.642Z,2.22
2023-01-22T10:44:42.396Z,1.80
2023-01-22T10:47:18.772Z,2.00
2023-01-22T10:49:50.448Z,1.63
2023-01-22T10:52:22.063Z,1.95
2023-01-22T10:54:53.962Z,1.73
2023-01-22T10:57:26.499Z,1.85
2023-01-22T10:59:58.111Z,2.13
2023-01-22T11:02:29.708Z,1.30
2023-01-22T11:05:01.643Z,2.40
2023-01-22T11:07:33.475Z,1.50
2023-01-22T11:10:05.417Z,1.93
2023-01-22T11:12:36.911Z,1.17
2023-01-22T11:15:08.783Z,1.30
2023-01-22T11:17:40.317Z,1.50
2023-01-22T11:20:12.224Z,0.98
2023-01-22T11:22:43.817Z,1.10
2023-01-22T11:25:15.891Z,1.58
2023-01-22T11:27:47.409Z,2.00
2023-01-22T11:30:21.242Z,1.30
2023-01-22T11:32:53.001Z,1.42
2023-01-22T11:35:24.967Z,1.30
2023-01-22T11:37:56.481Z,1.63
2023-01-22T11:40:28.759Z,1.38
2023-01-22T11:43:00.336Z,1.35
2023-01-22T11:45:32.094Z,1.10
2023-01-22T11:48:03.600Z,1.88
2023-01-22T11:50:35.442Z,1.52
2023-01-22T11:53:07.002Z,1.83
2023-01-22T11:55:40.252Z,1.42
2023-01-22T11:58:11.792Z,2.10
2023-01-22T12:00:43.474Z,1.15
2023-01-22T12:03:14.999Z,1.77
2023-01-22T12:05:47.016Z,2.45
2023-01-22T12:08:18.546Z,1.73
2023-01-22T12:10:50.631Z,1.75
2023-01-22T12:13:22.148Z,1.30
2023-01-22T12:15:54.162Z,1.77
2023-01-22T12:18:25.713Z,1.27
2023-01-22T12:20:57.615Z,1.65
2023-01-22T12:23:29.180Z,1.57
2023-01-22T12:26:02.308Z,1.92
2023-01-22T12:28:33.809Z,1.92
2023-01-22T12:31:06.743Z,1.67
2023-01-22T12:33:39.230Z,1.08
2023-01-22T12:36:13.518Z,2.13
2023-01-22T12:38:45.147Z,2.05
2023-01-22T12:41:16.660Z,1.23
2023-01-22T12:43:48.197Z,1.00
2023-01-22T12:46:19.803Z,1.67
2023-01-22T12:48:51.706Z,1.75
2023-01-22T12:51:23.265Z,1.57
2023-01-22T12:53:54.887Z,1.80
2023-01-22T12:56:26.414Z,1.95
2023-01-22T12:58:58.465Z,1.52
2023-01-22T13:01:30.010Z,1.70
2023-01-22T13:04:01.596Z,1.55
2023-01-22T13:06:33.517Z,1.85
2023-01-22T13:09:05.100Z,1.30
2023-01-22T13:11:36.892Z,1.35
2023-01-22T13:14:15.183Z,2.33
2023-01-22T13:16:47.332Z,1.73
2023-01-22T13:19:18.852Z,2.08
2023-01-22T13:21:50.778Z,2.03
2023-01-22T13:24:22.308Z,1.50
2023-01-22T13:26:54.288Z,2.08
2023-01-22T13:29:27.331Z,1.40
2023-01-22T13:31:59.346Z,1.95
2023-01-22T13:34:30.925Z,2.47
2023-01-22T13:37:02.561Z,2.13
2023-01-22T13:39:34.214Z,1.85
2023-01-22T13:42:05.763Z,2.17
2023-01-22T13:44:37.272Z,1.75
2023-01-22T13:47:08.797Z,2.33
2023-01-22T13:49:40.324Z,1.83
2023-01-22T13:52:12.211Z,1.58
2023-01-22T13:54:43.899Z,2.75
2023-01-22T13:57:15.784Z,1.85
2023-01-22T13:59:49.079Z,2.13
2023-01-22T14:02:21.637Z,1.70
2023-01-22T14:04:53.209Z,1.55
2023-01-22T14:07:25.340Z,1.80
2023-01-22T14:09:56.873Z,1.83
2023-01-22T14:12:30.530Z,1.67
2023-01-22T14:15:02.053Z,1.88
2023-01-22T14:17:34.504Z,1.80
2023-01-22T14:20:06.308Z,1.50
2023-01-22T14:22:38.153Z,2.03
2023-01-22T14:25:09.714Z,2.80
2023-01-22T14:27:41.244Z,1.77
2023-01-22T14:30:14.521Z,2.10
2023-01-22T14:32:46.068Z,2.05
2023-01-22T14:35:17.684Z,1.63
2023-01-22T14:37:49.680Z,1.77
2023-01-22T14:40:21.470Z,2.53
2023-01-22T14:42:53.547Z,2.45
2023-01-22T14:45:25.100Z,2.33
2023-01-22T14:47:56.852Z,2.08
2023-01-22T14:50:28.368Z,2.10
2023-01-22T14:53:00.310Z,2.22
2023-01-22T14:55:31.832Z,1.63
2023-01-22T14:58:03.738Z,2.67
2023-01-22T15:00:35.258Z,2.00
2023-01-22T15:03:07.223Z,2.28
2023-01-22T15:05:38.732Z,2.30
2023-01-22T15:08:10.357Z,1.90
2023-01-22T15:10:41.882Z,1.70
2023-01-22T15:13:13.431Z,2.20
2023-01-22T15:15:44.942Z,1.95
2023-01-22T15:18:16.749Z,2.00
2023-01-22T15:20:48.283Z,1.93
2023-01-22T15:23:20.127Z,1.85
2023-01-22T15:25:51.636Z,3.17
2023-01-22T15:28:23.149Z,2.53
2023-01-22T15:30:56.754Z,2.05
2023-01-22T15:33:28.278Z,1.80
2023-01-22T15:35:59.787Z,2.35
2023-01-22T15:38:31.607Z,1.95
2023-01-22T15:41:03.118Z,2.27
2023-01-22T15:43:34.848Z,1.95
2023-01-22T15:46:06.434Z,1.88
2023-01-22T15:48:38.272Z,1.65
2023-01-22T15:51:09.837Z,2.90
2023-01-22T15:53:41.399Z,2.10
2023-01-22T15:56:12.909Z,2.75
2023-01-22T15:58:44.709Z,3.05
2023-01-22T16:01:16.277Z,2.93
2023-01-22T16:03:48.155Z,2.38
2023-01-22T16:06:19.668Z,2.80
2023-01-22T16:08:51.613Z,2.28
2023-01-22T16:11:23.117Z,1.92
2023-01-22T16:13:54.887Z,2.47
2023-01-22T16:16:26.546Z,1.92
2023-01-22T16:18:58.501Z,3.08
2023-01-22T16:21:30.007Z,3.42
2023-01-22T16:24:01.880Z,2.40
2023-01-22T16:26:33.444Z,3.47
2023-01-22T16:29:05.306Z,2.58
2023-01-22T16:31:37.017Z,1.70
2023-01-22T16:34:09.178Z,2.60
2023-01-22T16:36:40.704Z,2.00
2023-01-22T16:39:12.225Z,2.65
2023-01-22T16:41:43.717Z,2.60
2023-01-22T16:44:16.735Z,3.58
2023-01-22T16:46:49.383Z,2.40
2023-01-22T16:49:21.409Z,1.70
2023-01-22T16:51:52.935Z,2.25
2023-01-22T16:54:24.926Z,2.05
2023-01-22T16:56:56.505Z,2.95
2023-01-22T16:59:28.341Z,2.55
2023-01-22T17:01:59.849Z,3.27
2023-01-22T17:04:31.862Z,2.90
2023-01-22T17:07:05.884Z,2.92
2023-01-22T17:09:37.628Z,2.33
2023-01-22T17:12:09.149Z,2.28
2023-01-22T17:14:41.045Z,3.22
2023-01-22T17:17:12.640Z,2.93
2023-01-22T17:19:44.152Z,2.42
2023-01-22T17:22:15.697Z,3.22
2023-01-22T17:24:48.003Z,3.10
2023-01-22T17:27:21.482Z,3.33
2023-01-22T17:29:53.379Z,2.95
2023-01-22T17:32:26.429Z,3.07
2023-01-22T17:34:58.423Z,1.95
2023-01-22T17:37:29.993Z,2.83
2023-01-22T17:40:01.866Z,2.05
2023-01-22T17:42:33.353Z,2.03
2023-01-22T17:45:05.249Z,2.63
2023-01-22T17:47:36.808Z,1.80
2023-01-22T17:50:09.031Z,3.65
2023-01-22T17:52:40.599Z,2.28
2023-01-22T17:55:12.436Z,3.35
2023-01-22T17:57:43.971Z,1.87
2023-01-22T18:00:17.462Z,2.67
2023-01-22T18:02:50.035Z,2.92
2023-01-22T18:05:23.167Z,2.17
2023-01-22T18:07:54.829Z,2.55
2023-01-22T18:10:28.031Z,2.15
2023-01-22T18:12:59.912Z,2.08
2023-01-22T18:15:31.451Z,2.53
2023-01-22T18:18:02.983Z,2.25
2023-01-22T18:20:34.478Z,1.90
2023-01-22T18:23:06.294Z,1.80
2023-01-22T18:25:37.797Z,1.77
2023-01-22T18:28:10.462Z,1.80
2023-01-22T18:33:15.150Z,1.13
2023-01-22T18:35:46.765Z,1.98
2023-01-22T18:38:21.072Z,2.35
2023-01-22T18:40:52.691Z,2.72
2023-01-22T18:43:24.255Z,2.33
2023-01-22T18:45:55.773Z,2.25
2023-01-22T18:48:27.615Z,2.25
2023-01-22T18:50:59.209Z,2.07
2023-01-22T18:53:32.844Z,2.38
2023-01-22T18:56:04.394Z,2.28
2023-01-22T18:58:36.324Z,1.60
2023-01-22T19:01:08.974Z,1.97
2023-01-22T19:03:40.695Z,2.95
2023-01-22T19:06:15.976Z,2.80
2023-01-22T19:08:47.679Z,1.63
2023-01-22T19:11:19.273Z,2.80
2023-01-22T19:13:51.165Z,1.95
2023-01-22T19:16:22.826Z,3.00
2023-01-22T19:18:54.419Z,1.70
2023-01-22T19:21:25.987Z,2.35
2023-01-22T19:23:57.849Z,3.15
2023-01-22T19:26:30.525Z,2.50
2023-01-22T19:31:34.195Z,2.22
2023-01-22T19:34:06.208Z,2.45
2023-01-22T19:36:38.690Z,2.30
2023-01-22T19:41:43.103Z,2.20
2023-01-22T19:44:15.091Z,2.42
2023-01-22T19:46:46.662Z,3.08
2023-01-22T19:49:18.775Z,2.03
2023-01-22T19:51:50.268Z,2.20
2023-01-22T19:54:22.809Z,2.33
2023-01-22T19:56:54.323Z,3.80
2023-01-22T19:59:26.214Z,3.08
2023-01-22T20:01:57.874Z,2.37
2023-01-22T20:04:31.006Z,2.10
2023-01-22T20:07:04.414Z,2.13
2023-01-22T20:09:35.949Z,2.85
2023-01-22T20:12:08.647Z,2.42
2023-01-22T20:17:16.657Z,1.45
2023-01-22T20:19:48.509Z,1.95
2023-01-22T20:22:20.045Z,2.50
2023-01-22T20:24:51.908Z,2.35
2023-01-22T20:27:23.423Z,2.33
2023-01-22T20:29:55.319Z,2.25
2023-01-22T20:32:28.598Z,2.23
2023-01-22T20:35:00.407Z,1.88
2023-01-22T20:37:31.914Z,2.90
2023-01-22T20:40:11.067Z,2.05
2023-01-22T20:42:42.585Z,1.52
2023-01-22T20:45:14.138Z,2.20
2023-01-22T20:47:45.677Z,1.70
2023-01-22T20:50:17.202Z,2.10
2023-01-22T20:52:48.772Z,3.30
2023-01-22T20:55:21.033Z,2.53
2023-01-22T20:57:52.869Z,2.53
2023-01-22T21:00:25.699Z,2.20
2023-01-22T21:02:57.549Z,1.88
2023-01-22T21:05:29.909Z,3.40
2023-01-22T21:08:02.241Z,1.80
2023-01-22T21:10:33.781Z,3.13
2023-01-22T21:13:06.397Z,2.72
2023-01-22T21:15:37.921Z,1.63
2023-01-22T21:18:09.674Z,3.10
2023-01-22T21:20:41.197Z,2.35
2023-01-22T21:23:13.124Z,3.30
2023-01-22T21:25:44.654Z,1.30
2023-01-22T21:28:16.181Z,2.85
2023-01-22T21:30:47.746Z,2.67
2023-01-22T21:33:19.880Z,2.78
2023-01-22T21:35:51.412Z,2.60
2023-01-22T21:38:23.212Z,2.67
2023-01-22T21:40:55.013Z,2.97
2023-01-22T21:43:45.470Z,1.83
2023-01-22T21:46:25.365Z,2.67
2023-01-22T21:49:01.461Z,2.10
2023-01-22T21:51:32.973Z,2.28
2023-01-22T21:54:04.942Z,3.58
2023-01-22T21:56:36.463Z,2.97
2023-01-22T21:59:08.057Z,3.33
2023-01-22T22:01:39.632Z,2.72
2023-01-22T22:04:11.468Z,2.13
2023-01-22T22:06:43.015Z,3.13
2023-01-22T22:09:14.969Z,2.15
2023-01-22T22:11:46.519Z,2.35
2023-01-22T22:14:18.084Z,4.03
2023-01-22T22:16:49.666Z,3.03
2023-01-22T22:19:21.557Z,2.13
2023-01-22T22:21:53.162Z,3.00
2023-01-22T22:24:25.036Z,2.53
2023-01-22T22:26:56.557Z,2.83
2023-01-22T22:29:28.420Z,3.08
2023-01-22T22:32:00.574Z,2.93
2023-01-22T22:34:32.168Z,2.40
2023-01-22T22:37:03.694Z,1.63
2023-01-22T22:39:35.583Z,3.88
2023-01-22T22:42:07.164Z,3.67
2023-01-22T22:44:38.973Z,3.47
2023-01-22T22:47:10.474Z,1.97
2023-01-22T22:49:42.038Z,2.83
2023-01-22T22:52:13.662Z,2.15
2023-01-22T22:54:45.504Z,2.90
2023-01-22T22:57:17.246Z,2.47
2023-01-22T22:59:49.216Z,2.65
2023-01-22T23:02:20.760Z,3.30
2023-01-22T23:04:52.624Z,2.55
2023-01-22T23:07:24.149Z,1.67
2023-01-22T23:09:56.671Z,2.78
2023-01-22T23:12:28.356Z,2.63
2023-01-22T23:15:00.223Z,3.13
2023-01-22T23:17:31.730Z,2.13
2023-01-22T23:20:03.582Z,2.60
2023-01-22T23:22:35.096Z,2.73
2023-01-22T23:25:06.914Z,3.35
2023-01-22T23:27:38.443Z,3.50
2023-01-22T23:30:10.339Z,2.78
2023-01-22T23:32:42.734Z,4.03
2023-01-22T23:35:14.692Z,2.78
2023-01-22T23:37:46.262Z,3.40
2023-01-22T23:40:18.715Z,2.53
2023-01-22T23:42:50.375Z,3.35
2023-01-22T23:45:21.937Z,3.28
2023-01-22T23:47:53.481Z,2.45
2023-01-22T23:50:25.351Z,2.95
2023-01-22T23:52:56.905Z,2.50
2023-01-22T23:55:28.799Z,2.63
2023-01-22T23:58:00.453Z,3.83
